Time;durP1;ratioP1;P1;durP2;ratioP2;P2;SDS_P1;SDS_P2;PMS_P1;PMS_P2;Temp;Humidity;BMP_temperature;BMP_pressure;BME280_temperature;BME280_humidity;BME280_pressure;Samples;Min_cycle;Max_cycle;Signal;HPM_P1;HPM_P2
2021/05/26 00:00:29;;;;;;;3.55;1.17;;;23.40;44.10;;;;;;5001423;28;20037;-64
2021/05/26 00:02:55;;;;;;;4.05;1.50;;;23.40;44.10;;;;;;4991210;28;20029;-64
2021/05/26 00:05:20;;;;;;;3.28;1.30;;;23.30;43.90;;;;;;4992276;28;20030;-64
2021/05/26 00:07:46;;;;;;;3.22;1.38;;;23.40;44.00;;;;;;4995535;28;20034;-64
2021/05/26 00:10:12;;;;;;;2.30;1.13;;;23.40;43.90;;;;;;4996818;28;20035;-64
2021/05/26 00:12:38;;;;;;;2.47;1.50;;;23.30;43.80;;;;;;4994836;28;20543;-64
2021/05/26 00:15:05;;;;;;;3.38;1.20;;;23.40;44.00;;;;;;4992657;28;20026;-63
2021/05/26 00:17:31;;;;;;;;;;;23.40;43.90;;;;;;4991086;28;20037;-64
2021/05/26 00:19:57;;;;;;;3.50;1.48;;;23.40;43.60;;;;;;4991119;28;19914;-64
2021/05/26 00:22:23;;;;;;;3.53;1.40;;;23.50;43.80;;;;;;4990782;28;20127;-64
2021/05/26 00:24:48;;;;;;;4.05;1.50;;;23.40;43.80;;;;;;4992751;28;20096;-65
2021/05/26 00:27:14;;;;;;;3.80;1.50;;;23.50;43.50;;;;;;4991391;28;20066;-64
2021/05/26 00:29:39;;;;;;;2.20;1.30;;;23.40;43.60;;;;;;4992851;28;20108;-64
2021/05/26 00:32:05;;;;;;;3.38;1.60;;;23.50;43.80;;;;;;4992407;28;20405;-64
2021/05/26 00:34:31;;;;;;;3.35;1.58;;;23.40;43.80;;;;;;4996434;28;20022;-64
2021/05/26 00:36:56;;;;;;;2.95;1.45;;;23.50;43.90;;;;;;5000828;28;20087;-64
2021/05/26 00:39:22;;;;;;;3.15;1.50;;;23.40;43.70;;;;;;4987978;28;20560;-64
2021/05/26 00:41:47;;;;;;;3.03;1.27;;;23.50;43.80;;;;;;4996250;28;20080;-64
2021/05/26 00:44:16;;;;;;;3.78;1.50;;;23.50;43.70;;;;;;4996852;28;20034;-64
2021/05/26 00:46:45;;;;;;;3.05;1.55;;;23.50;43.70;;;;;;4993400;28;20058;-64
2021/05/26 00:49:11;;;;;;;3.60;1.50;;;23.50;43.70;;;;;;4994589;28;20600;-64
2021/05/26 00:51:37;;;;;;;3.45;1.52;;;23.50;43.50;;;;;;4994222;28;20504;-64
2021/05/26 00:54:04;;;;;;;4.15;1.70;;;23.50;43.60;;;;;;4989359;28;20045;-64
2021/05/26 00:56:29;;;;;;;2.70;1.43;;;23.50;43.80;;;;;;4991846;28;20027;-64
2021/05/26 00:58:55;;;;;;;3.35;1.60;;;23.50;43.40;;;;;;4993063;28;20041;-64
2021/05/26 01:01:21;;;;;;;3.70;1.73;;;23.50;43.60;;;;;;4993092;28;20438;-64
2021/05/26 01:03:46;;;;;;;4.43;1.50;;;23.50;43.60;;;;;;4999450;28;20026;-64
2021/05/26 01:06:12;;;;;;;3.55;1.65;;;23.50;43.30;;;;;;4993182;28;20034;-64
2021/05/26 01:08:38;;;;;;;3.10;1.60;;;23.50;43.30;;;;;;4991483;28;20500;-64
2021/05/26 01:11:06;;;;;;;3.50;1.83;;;23.60;43.50;;;;;;4991311;28;20069;-63
2021/05/26 01:13:33;;;;;;;3.50;1.42;;;23.60;43.20;;;;;;4994460;28;20401;-64
2021/05/26 01:15:59;;;;;;;2.70;1.50;;;23.60;43.10;;;;;;4990025;28;20023;-63
2021/05/26 01:18:32;;;;;;;3.60;1.50;;;23.60;43.10;;;;;;4995657;28;20367;-64
2021/05/26 01:21:00;;;;;;;4.65;1.92;;;23.60;43.20;;;;;;4996347;28;20528;-63
2021/05/26 01:23:26;;;;;;;3.80;1.73;;;23.60;43.60;;;;;;5000933;28;20120;-64
2021/05/26 01:25:55;;;;;;;3.92;1.60;;;23.60;43.40;;;;;;4997316;28;20070;-64
2021/05/26 01:28:22;;;;;;;3.78;1.60;;;23.60;43.60;;;;;;5001446;28;20034;-63
2021/05/26 01:30:48;;;;;;;3.80;1.90;;;23.60;43.50;;;;;;4999108;28;20046;-64
2021/05/26 01:33:14;;;;;;;2.70;1.48;;;23.60;43.50;;;;;;5013922;28;20029;-64
2021/05/26 01:35:41;;;;;;;3.95;1.80;;;23.60;43.50;;;;;;4999152;28;20448;-63
2021/05/26 01:38:07;;;;;;;;;;;23.60;43.40;;;;;;5000493;28;20026;-64
2021/05/26 01:40:33;;;;;;;3.40;1.48;;;23.60;43.40;;;;;;5001410;28;19979;-64
2021/05/26 01:42:59;;;;;;;3.40;1.70;;;23.60;43.30;;;;;;4993327;28;20499;-64
2021/05/26 01:45:24;;;;;;;3.63;1.55;;;23.60;43.30;;;;;;4996849;28;20030;-64
2021/05/26 01:47:50;;;;;;;3.40;1.55;;;23.60;43.40;;;;;;4997242;28;20065;-64
2021/05/26 01:50:21;;;;;;;2.83;1.58;;;23.60;43.20;;;;;;4997770;28;20773;-63
2021/05/26 01:52:52;;;;;;;2.65;1.70;;;23.60;43.30;;;;;;4996589;28;20030;-64
2021/05/26 01:55:19;;;;;;;3.83;1.65;;;23.60;43.10;;;;;;4996528;28;21013;-64
2021/05/26 01:57:45;;;;;;;3.93;1.70;;;23.60;43.00;;;;;;4996213;28;20488;-64
2021/05/26 02:00:16;;;;;;;3.40;1.70;;;23.60;43.20;;;;;;4992940;28;20130;-64
2021/05/26 02:02:41;;;;;;;3.42;1.60;;;23.60;42.90;;;;;;4994987;28;20030;-64
2021/05/26 02:05:09;;;;;;;4.00;1.88;;;23.60;43.00;;;;;;4997085;28;20506;-64
2021/05/26 02:07:35;;;;;;;;;;;23.60;43.00;;;;;;4996915;28;20049;-64
2021/05/26 02:10:01;;;;;;;3.17;1.58;;;23.60;42.80;;;;;;4995783;28;20000;-63
2021/05/26 02:12:32;;;;;;;3.53;1.60;;;23.70;43.00;;;;;;4996906;28;20188;-64
2021/05/26 02:14:59;;;;;;;3.22;1.60;;;23.70;43.20;;;;;;4993893;28;20358;-64
2021/05/26 02:17:25;;;;;;;3.28;1.67;;;23.60;43.00;;;;;;4995420;28;20509;-63
2021/05/26 02:19:51;;;;;;;2.75;1.70;;;23.60;43.20;;;;;;4991978;28;20038;-64
2021/05/26 02:22:18;;;;;;;4.47;1.85;;;23.60;43.20;;;;;;4994970;28;20125;-64
2021/05/26 02:24:44;;;;;;;2.85;1.60;;;23.60;43.30;;;;;;4994732;28;20481;-64
2021/05/26 02:27:10;;;;;;;3.55;1.90;;;23.60;43.20;;;;;;4995055;28;20048;-65
2021/05/26 02:29:36;;;;;;;2.95;1.67;;;23.60;43.20;;;;;;4999336;28;20026;-64
2021/05/26 02:32:03;;;;;;;3.17;1.80;;;23.60;43.20;;;;;;4990860;28;20033;-64
2021/05/26 02:34:28;;;;;;;3.63;1.88;;;23.60;43.20;;;;;;4996267;28;20018;-63
2021/05/26 02:36:54;;;;;;;3.50;1.80;;;23.60;43.20;;;;;;4999536;28;20022;-63
2021/05/26 02:39:20;;;;;;;3.88;1.70;;;23.60;43.20;;;;;;4995361;28;20529;-64
2021/05/26 02:41:46;;;;;;;3.65;1.73;;;23.60;43.20;;;;;;5001221;28;20050;-64
2021/05/26 02:44:12;;;;;;;2.95;1.63;;;23.60;43.10;;;;;;4994452;28;20112;-64
2021/05/26 02:46:37;;;;;;;4.40;1.73;;;23.60;43.10;;;;;;4993333;28;20049;-64
2021/05/26 02:49:05;;;;;;;2.53;1.60;;;23.60;43.00;;;;;;4991761;28;20109;-64
2021/05/26 02:51:34;;;;;;;3.33;1.63;;;23.60;42.90;;;;;;4999573;28;20172;-64
2021/05/26 02:54:00;;;;;;;2.72;1.60;;;23.60;42.90;;;;;;4991699;28;20033;-64
2021/05/26 02:56:26;;;;;;;3.05;1.60;;;23.60;42.90;;;;;;4993481;28;20030;-64
2021/05/26 02:58:52;;;;;;;4.00;1.77;;;23.60;42.80;;;;;;4996068;28;20092;-64
2021/05/26 03:01:17;;;;;;;2.70;1.67;;;23.60;43.10;;;;;;4993019;28;20081;-64
2021/05/26 03:03:43;;;;;;;2.88;1.48;;;23.60;42.70;;;;;;4993457;28;20033;-64
2021/05/26 03:06:09;;;;;;;2.80;1.58;;;23.60;42.90;;;;;;4995942;28;20034;-64
2021/05/26 03:08:34;;;;;;;3.92;1.60;;;23.60;43.10;;;;;;4991266;28;20046;-64
2021/05/26 03:11:00;;;;;;;3.03;1.70;;;23.60;43.20;;;;;;4998403;28;20424;-64
2021/05/26 03:13:26;;;;;;;3.25;1.60;;;23.60;43.30;;;;;;4995054;28;20395;-64
2021/05/26 03:15:53;;;;;;;2.88;1.50;;;23.60;43.20;;;;;;4998358;28;20033;-64
2021/05/26 03:18:19;;;;;;;3.15;1.60;;;23.60;43.20;;;;;;4996743;28;20512;-64
2021/05/26 03:20:45;;;;;;;3.30;1.63;;;23.50;43.30;;;;;;4998704;28;20076;-64
2021/05/26 03:23:10;;;;;;;3.50;1.58;;;23.60;43.30;;;;;;4999155;28;20452;-64
2021/05/26 03:25:37;;;;;;;2.60;1.50;;;23.50;43.20;;;;;;4992483;28;20096;-64
2021/05/26 03:28:03;;;;;;;2.72;1.40;;;23.60;43.20;;;;;;4993740;28;20038;-64
2021/05/26 03:30:28;;;;;;;2.80;1.45;;;23.50;43.30;;;;;;4998826;28;20506;-64
2021/05/26 03:32:54;;;;;;;2.90;1.50;;;23.50;43.20;;;;;;4989692;28;20030;-64
2021/05/26 03:35:20;;;;;;;3.00;1.45;;;23.50;43.00;;;;;;4998505;28;20068;-64
2021/05/26 03:37:47;;;;;;;3.08;1.52;;;23.50;43.20;;;;;;4999561;28;20399;-64
2021/05/26 03:40:14;;;;;;;2.50;1.27;;;23.50;43.10;;;;;;4996110;28;20055;-64
2021/05/26 03:42:41;;;;;;;3.33;1.65;;;23.60;42.90;;;;;;4996525;28;20049;-64
2021/05/26 03:45:08;;;;;;;3.22;1.80;;;23.50;42.90;;;;;;4992283;28;20442;-64
2021/05/26 03:47:35;;;;;;;3.03;1.50;;;23.50;43.10;;;;;;4992489;28;20045;-65
2021/05/26 03:50:00;;;;;;;2.83;1.42;;;23.50;43.00;;;;;;4988783;28;20057;-64
2021/05/26 03:52:26;;;;;;;1.90;1.27;;;23.50;43.20;;;;;;4997058;28;20062;-65
2021/05/26 03:54:52;;;;;;;2.45;1.50;;;23.50;43.40;;;;;;4994560;28;20021;-64
2021/05/26 03:57:18;;;;;;;3.28;1.30;;;23.60;43.40;;;;;;4996054;28;20121;-64
2021/05/26 03:59:44;;;;;;;2.97;1.63;;;23.50;43.40;;;;;;4989926;28;20499;-64
2021/05/26 04:02:09;;;;;;;2.67;1.30;;;23.50;43.40;;;;;;5001353;28;20405;-64
2021/05/26 04:04:38;;;;;;;2.63;1.35;;;23.50;43.40;;;;;;4989648;28;20027;-64
2021/05/26 04:07:05;;;;;;;2.40;1.38;;;23.50;43.40;;;;;;4998417;28;20034;-64
2021/05/26 04:09:30;;;;;;;2.60;1.33;;;23.50;43.50;;;;;;4990096;28;20105;-64
2021/05/26 04:11:56;;;;;;;2.67;1.30;;;23.50;43.50;;;;;;4993866;28;20110;-64
2021/05/26 04:14:21;;;;;;;2.38;1.40;;;23.50;43.50;;;;;;4991138;28;20360;-63
2021/05/26 04:16:47;;;;;;;1.98;1.10;;;23.50;43.50;;;;;;4991631;28;20112;-64
2021/05/26 04:19:13;;;;;;;3.17;1.40;;;23.50;43.40;;;;;;4989562;28;20390;-64
2021/05/26 04:21:39;;;;;;;2.25;1.40;;;23.50;43.40;;;;;;4993965;28;20043;-64
2021/05/26 04:24:05;;;;;;;2.42;1.15;;;23.50;43.40;;;;;;4994083;28;20042;-64
2021/05/26 04:26:31;;;;;;;2.97;1.30;;;23.50;43.60;;;;;;4989673;28;20531;-64
2021/05/26 04:28:56;;;;;;;2.38;1.30;;;23.50;43.30;;;;;;4997462;28;20022;-64
2021/05/26 04:31:22;;;;;;;2.53;1.27;;;23.50;43.20;;;;;;4991806;28;20033;-63
2021/05/26 04:33:48;;;;;;;1.83;1.20;;;23.50;43.20;;;;;;4995923;28;20026;-63
2021/05/26 04:36:14;;;;;;;2.30;1.17;;;23.50;43.10;;;;;;4993153;28;20034;-64
2021/05/26 04:38:39;;;;;;;1.92;1.00;;;23.50;43.20;;;;;;4988365;28;20032;-64
2021/05/26 04:41:08;;;;;;;1.65;1.10;;;23.50;43.10;;;;;;4999451;28;20030;-64
2021/05/26 04:43:34;;;;;;;2.17;0.98;;;23.50;43.10;;;;;;4998397;28;20049;-64
2021/05/26 04:46:04;;;;;;;2.80;1.35;;;23.50;43.20;;;;;;4996376;28;20068;-64
2021/05/26 04:48:30;;;;;;;1.98;1.13;;;23.50;43.60;;;;;;4994991;28;20400;-64
2021/05/26 04:50:56;;;;;;;2.38;1.35;;;23.50;43.50;;;;;;4995747;28;20042;-64
2021/05/26 04:53:22;;;;;;;1.90;1.20;;;23.50;43.50;;;;;;4990499;28;20098;-64
2021/05/26 04:55:48;;;;;;;1.60;1.05;;;23.50;43.60;;;;;;4992446;28;20057;-64
2021/05/26 04:58:14;;;;;;;2.53;1.23;;;23.50;43.60;;;;;;5002131;28;20551;-64
2021/05/26 05:00:39;;;;;;;2.25;1.17;;;23.50;43.60;;;;;;4999363;28;20037;-64
2021/05/26 05:03:05;;;;;;;4.00;1.10;;;23.50;43.60;;;;;;4995535;28;20035;-64
2021/05/26 05:05:32;;;;;;;2.45;1.30;;;23.50;43.50;;;;;;4995415;28;20026;-64
2021/05/26 05:08:02;;;;;;;2.85;1.08;;;23.50;43.50;;;;;;4994449;28;20046;-64
2021/05/26 05:10:28;;;;;;;1.00;0.77;;;23.50;43.50;;;;;;4992427;28;20038;-64
2021/05/26 05:12:54;;;;;;;1.55;1.00;;;23.50;44.50;;;;;;5003303;28;20079;-64
2021/05/26 05:15:19;;;;;;;2.25;0.82;;;23.50;43.50;;;;;;4990356;28;20117;-64
2021/05/26 05:17:46;;;;;;;1.80;1.02;;;23.50;43.60;;;;;;4999326;28;20045;-64
2021/05/26 05:20:17;;;;;;;1.80;1.10;;;23.50;43.20;;;;;;4996819;28;20084;-64
2021/05/26 05:22:42;;;;;;;2.88;0.90;;;23.50;43.30;;;;;;4998473;28;20997;-64
2021/05/26 05:25:10;;;;;;;1.77;0.90;;;23.50;43.10;;;;;;4994568;28;20109;-64
2021/05/26 05:27:36;;;;;;;1.15;0.80;;;23.60;43.40;;;;;;4998374;28;20065;-63
2021/05/26 05:30:03;;;;;;;1.80;1.10;;;23.60;43.30;;;;;;4996627;28;20111;-64
2021/05/26 05:32:28;;;;;;;1.60;0.80;;;23.60;43.40;;;;;;4995709;28;20033;-64
2021/05/26 05:34:54;;;;;;;2.05;0.90;;;23.60;43.40;;;;;;4996487;28;20046;-64
2021/05/26 05:37:19;;;;;;;1.60;0.75;;;23.60;43.30;;;;;;4992820;28;20096;-64
2021/05/26 05:39:45;;;;;;;1.98;0.90;;;23.60;43.50;;;;;;4999738;28;20037;-63
2021/05/26 05:42:11;;;;;;;1.35;0.90;;;23.60;43.40;;;;;;4999937;28;20339;-64
2021/05/26 05:44:36;;;;;;;1.70;0.80;;;23.60;43.70;;;;;;4997056;28;20026;-64
2021/05/26 05:47:02;;;;;;;3.45;1.00;;;23.60;43.80;;;;;;4990229;28;20109;-64
2021/05/26 05:49:27;;;;;;;2.03;0.70;;;23.60;44.00;;;;;;4998388;28;20029;-63
2021/05/26 05:51:53;;;;;;;2.22;1.10;;;23.60;44.00;;;;;;4998200;28;20157;-66
2021/05/26 05:54:18;;;;;;;4.00;1.10;;;23.60;44.50;;;;;;4997646;28;20077;-64
2021/05/26 05:56:44;;;;;;;2.60;0.90;;;23.60;44.50;;;;;;4999839;28;20389;-64
2021/05/26 05:59:10;;;;;;;1.45;1.00;;;23.60;44.80;;;;;;4991749;28;20461;-64
2021/05/26 06:01:35;;;;;;;2.53;0.98;;;23.60;44.80;;;;;;4997047;28;20508;-64
2021/05/26 06:04:01;;;;;;;1.17;0.88;;;23.60;44.80;;;;;;4990751;28;20116;-64
2021/05/26 06:06:26;;;;;;;1.77;0.82;;;23.60;44.90;;;;;;4994057;28;20053;-63
2021/05/26 06:08:52;;;;;;;2.13;1.02;;;23.60;45.40;;;;;;4994228;28;20039;-60
2021/05/26 06:11:17;;;;;;;2.38;0.82;;;23.60;45.50;;;;;;4995606;28;20026;-60
2021/05/26 06:13:47;;;;;;;2.92;0.80;;;23.60;45.40;;;;;;4995095;28;20029;-61
2021/05/26 06:16:13;;;;;;;1.17;0.77;;;23.60;45.40;;;;;;4996618;28;20045;-60
2021/05/26 06:18:38;;;;;;;2.25;0.90;;;23.60;44.80;;;;;;4996279;28;20477;-60
2021/05/26 06:21:04;;;;;;;1.85;0.88;;;23.60;44.50;;;;;;4997918;28;20023;-61
2021/05/26 06:23:30;;;;;;;3.40;0.90;;;23.60;44.90;;;;;;4993047;28;20196;-60
2021/05/26 06:25:55;;;;;;;2.05;0.95;;;23.60;44.80;;;;;;4994963;28;20029;-58
2021/05/26 06:28:21;;;;;;;3.15;1.00;;;;;;;;;;4993681;28;20046;-60
2021/05/26 06:30:47;;;;;;;3.30;0.77;;;;;;;;;;4999622;28;20030;-60
2021/05/26 06:33:13;;;;;;;1.75;0.80;;;;;;;;;;4985459;28;20083;-60
2021/05/26 06:35:39;;;;;;;2.92;0.93;;;;;;;;;;4983712;28;20026;-60
2021/05/26 06:38:05;;;;;;;1.80;0.70;;;;;;;;;;4986149;28;20119;-60
2021/05/26 06:40:31;;;;;;;1.65;0.70;;;;;;;;;;4989038;28;20037;-61
2021/05/26 06:42:57;;;;;;;1.30;0.80;;;;;;;;;;4995035;28;20472;-60
2021/05/26 06:45:23;;;;;;;1.33;0.90;;;;;;;;;;4994979;28;20040;-62
2021/05/26 06:47:49;;;;;;;0.73;0.55;;;;;;;;;;4997858;28;20488;-62
2021/05/26 06:50:16;;;;;;;2.30;0.90;;;;;;;;;;4998644;28;20026;-62
2021/05/26 06:52:42;;;;;;;1.15;0.70;;;;;;;;;;4998696;28;20084;-62
2021/05/26 06:55:08;;;;;;;2.10;0.70;;;;;;;;;;4994875;28;20030;-61
2021/05/26 06:57:34;;;;;;;1.63;0.70;;;;;;;;;;4995262;28;20034;-59
2021/05/26 07:00:01;;;;;;;2.55;0.75;;;;;;;;;;4994137;28;20057;-60
2021/05/26 07:02:27;;;;;;;2.65;0.80;;;;;;;;;;5000164;28;20037;-60
2021/05/26 07:04:53;;;;;;;3.03;0.90;;;;;;;;;;4993202;28;20049;-60
2021/05/26 07:07:19;;;;;;;1.20;0.60;;;;;;;;;;4994497;28;20038;-60
2021/05/26 07:09:45;;;;;;;1.65;0.70;;;;;;;;;;5004203;28;20022;-60
2021/05/26 07:12:11;;;;;;;0.93;0.50;;;;;;;;;;4994188;28;20373;-60
2021/05/26 07:14:37;;;;;;;1.70;0.70;;;;;;;;;;4991904;28;20021;-61
2021/05/26 07:17:03;;;;;;;2.83;0.80;;;;;;;;;;4995997;28;20399;-60
2021/05/26 07:19:30;;;;;;;3.28;0.88;;;;;;;;;;4992811;28;20048;-59
2021/05/26 07:21:56;;;;;;;2.47;0.75;;;;;;;;;;4996689;28;20412;-59
2021/05/26 07:24:22;;;;;;;2.90;1.00;;;;;;;;;;4995263;28;20039;-61
2021/05/26 07:26:47;;;;;;;1.45;0.65;;;;;;;;;;4993877;28;20123;-60
2021/05/26 07:29:13;;;;;;;2.17;0.88;;;;;;;;;;4994671;28;20525;-61
2021/05/26 07:31:41;;;;;;;4.47;0.80;;;;;;;;;;4990202;28;20043;-59
2021/05/26 07:34:07;;;;;;;;;;;;;;;;;;4993795;28;20092;-60
2021/05/26 07:36:33;;;;;;;2.97;0.80;;;;;;;;;;4991090;28;20389;-60
2021/05/26 07:39:00;;;;;;;7.28;0.95;;;;;;;;;;4988181;28;20452;-60
2021/05/26 07:41:26;;;;;;;1.90;0.60;;;;;;;;;;4992074;28;20418;-59
2021/05/26 07:43:52;;;;;;;2.17;0.60;;;;;;;;;;4995886;28;20038;-60
2021/05/26 07:46:18;;;;;;;2.72;0.73;;;;;;;;;;4990432;28;20049;-60
2021/05/26 07:48:44;;;;;;;3.20;0.80;;;;;;;;;;4990090;28;20081;-60
2021/05/26 07:51:14;;;;;;;1.55;0.70;;;;;;;;;;4992315;28;20026;-61
2021/05/26 07:53:40;;;;;;;1.92;0.70;;;;;;;;;;4992033;28;20030;-59
2021/05/26 07:56:06;;;;;;;2.85;0.90;;;;;;;;;;4989857;28;20531;-60
2021/05/26 07:58:32;;;;;;;2.30;0.68;;;;;;;;;;4998665;28;20152;-60
2021/05/26 08:00:58;;;;;;;2.78;0.80;;;;;;;;;;4990245;28;20037;-60
2021/05/26 08:03:25;;;;;;;2.45;0.50;;;;;;;;;;4993266;28;20026;-61
2021/05/26 08:05:51;;;;;;;1.77;0.63;;;;;;;;;;4997139;28;20032;-61
2021/05/26 08:08:17;;;;;;;1.77;0.88;;;;;;;;;;4988048;28;20066;-60
2021/05/26 08:10:43;;;;;;;0.85;0.50;;;;;;;;;;4990843;28;20123;-63
2021/05/26 08:13:10;;;;;;;3.00;0.70;;;;;;;;;;4993738;28;20042;-62
2021/05/26 08:15:37;;;;;;;2.13;0.77;;;;;;;;;;4989108;28;20045;-62
2021/05/26 08:18:03;;;;;;;1.65;0.50;;;;;;;;;;4998386;28;20030;-63
2021/05/26 08:20:29;;;;;;;1.15;0.60;;;;;;;;;;4991472;28;20034;-65
2021/05/26 08:22:55;;;;;;;2.13;0.70;;;;;;;;;;4990986;28;20413;-63
2021/05/26 08:25:21;;;;;;;1.60;0.80;;;;;;;;;;4990540;28;20133;-62
2021/05/26 08:27:47;;;;;;;2.25;0.70;;;;;;;;;;4993321;28;20437;-62
2021/05/26 08:30:13;;;;;;;3.17;0.80;;;;;;;;;;4996166;28;20398;-62
2021/05/26 08:32:39;;;;;;;4.75;0.80;;;;;;;;;;4996251;28;20038;-61
2021/05/26 08:35:05;;;;;;;1.55;0.60;;;;;;;;;;4996609;28;20034;-62
2021/05/26 08:37:31;;;;;;;2.50;0.60;;;;;;;;;;4994032;28;20711;-61
2021/05/26 08:39:58;;;;;;;2.35;0.80;;;;;;;;;;5001932;28;20031;-62
2021/05/26 08:42:24;;;;;;;3.28;0.88;;;;;;;;;;4992904;28;20026;-62
2021/05/26 08:44:50;;;;;;;5.00;0.63;;;;;;;;;;4997610;28;20048;-62
2021/05/26 08:47:17;;;;;;;2.58;0.73;;;;;;;;;;4995841;28;20042;-62
2021/05/26 08:49:44;;;;;;;2.95;0.77;;;;;;;;;;4993677;28;20026;-62
2021/05/26 08:52:10;;;;;;;3.28;0.73;;;;;;;;;;4997166;28;20132;-61
2021/05/26 08:54:38;;;;;;;2.05;0.70;;;;;;;;;;4998620;28;20129;-61
2021/05/26 08:57:04;;;;;;;0.90;0.60;;;;;;;;;;4995416;28;20052;-62
2021/05/26 08:59:30;;;;;;;1.73;0.80;;;;;;;;;;4994446;28;20030;-62
2021/05/26 09:01:56;;;;;;;2.67;0.68;;;;;;;;;;4992456;28;20370;-62
2021/05/26 09:04:26;;;;;;;3.28;1.00;;;;;;;;;;4994141;28;20992;-61
2021/05/26 09:07:05;;;;;;;2.38;0.70;;;;;;;;;;4992996;28;20034;-61
2021/05/26 09:09:33;;;;;;;1.77;0.90;;;;;;;;;;5000596;28;20030;-61
2021/05/26 09:11:59;;;;;;;2.28;0.60;;;;;;;;;;4995419;28;20085;-61
2021/05/26 09:14:36;;;;;;;2.42;0.77;;;;;;;;;;4996447;28;20034;-61
2021/05/26 09:17:10;;;;;;;3.88;0.90;;;;;;;;;;4997155;28;20072;-61
2021/05/26 09:19:36;;;;;;;3.17;0.90;;;;;;;;;;4997898;28;20117;-59
2021/05/26 09:22:15;;;;;;;0.85;0.70;;;23.60;44.50;;;;;;4991390;28;20492;-70
2021/05/26 09:24:41;;;;;;;1.15;0.70;;;23.50;42.80;;;;;;5004368;28;20025;-69
2021/05/26 09:27:09;;;;;;;2.67;0.80;;;23.40;42.80;;;;;;5000123;28;20041;-69
2021/05/26 09:29:44;;;;;;;2.90;0.70;;;23.30;42.50;;;;;;4993899;28;20029;-69
2021/05/26 09:32:17;;;;;;;1.38;0.73;;;23.20;42.60;;;;;;4995575;28;20084;-69
2021/05/26 09:34:59;;;;;;;1.60;0.60;;;23.20;42.40;;;;;;4994221;28;20041;-69
2021/05/26 09:37:30;;;;;;;4.07;0.90;;;23.20;42.40;;;;;;4999038;28;20117;-69
2021/05/26 09:40:03;;;;;;;2.10;0.85;;;23.20;42.50;;;;;;4999078;28;20045;-68
2021/05/26 09:42:43;;;;;;;2.40;0.90;;;23.30;42.80;;;;;;5000375;28;20030;-68
2021/05/26 09:45:14;;;;;;;2.58;0.70;;;23.30;42.60;;;;;;4998820;28;20030;-68
2021/05/26 09:47:46;;;;;;;2.67;0.90;;;23.30;42.60;;;;;;4994222;28;20038;-70
2021/05/26 09:50:16;;;;;;;1.52;0.98;;;23.20;42.60;;;;;;4648929;28;10000546;-69
2021/05/26 09:53:02;;;;;;;3.67;1.48;;;23.20;42.30;;;;;;4993325;28;20038;-68
2021/05/26 09:55:37;;;;;;;2.70;0.80;;;23.30;42.90;;;;;;4988331;28;20034;-66
2021/05/26 09:58:04;;;;;;;2.17;1.00;;;23.30;42.60;;;;;;4996705;28;20065;-66
2021/05/26 10:00:30;;;;;;;;;;;23.30;42.30;;;;;;4996826;28;20042;-66
2021/05/26 10:02:56;;;;;;;3.10;1.10;;;23.30;42.20;;;;;;4991482;28;19983;-71
2021/05/26 10:05:22;;;;;;;2.63;0.80;;;23.30;43.30;;;;;;4993534;28;20632;-71
2021/05/26 10:07:53;;;;;;;2.00;0.80;;;23.20;42.20;;;;;;4999874;28;22009;-70
2021/05/26 10:10:21;;;;;;;2.50;0.90;;;23.20;42.10;;;;;;4992817;28;20096;-71
2021/05/26 10:12:50;;;;;;;;;;;23.20;42.20;;;;;;4999163;28;20018;-71
2021/05/26 10:15:18;;;;;;;1.55;0.90;;;23.20;42.40;;;;;;4996760;28;19952;-71
2021/05/26 10:17:50;;;;;;;1.63;1.02;;;23.20;42.10;;;;;;4992615;28;20027;-70
2021/05/26 10:20:16;;;;;;;3.55;1.08;;;23.20;42.30;;;;;;4996445;28;20037;-70
2021/05/26 10:22:42;;;;;;;2.65;1.10;;;23.20;42.00;;;;;;4993265;28;20038;-71
2021/05/26 10:25:12;;;;;;;1.80;1.00;;;23.20;42.20;;;;;;4995059;28;20415;-71
2021/05/26 10:27:43;;;;;;;2.33;0.90;;;23.10;42.10;;;;;;4993319;28;20437;-71
2021/05/26 10:30:10;;;;;;;2.17;1.08;;;23.20;42.20;;;;;;4992457;28;20031;-71
2021/05/26 10:33:02;;;;;;;7.33;1.10;;;23.20;42.30;;;;;;4996758;28;20038;-71
2021/05/26 10:35:52;;;;;;;1.95;1.10;;;23.20;42.20;;;;;;5000305;28;20046;-71
2021/05/26 10:38:18;;;;;;;2.60;1.00;;;23.20;42.10;;;;;;5004451;28;20122;-69
2021/05/26 10:40:51;;;;;;;3.35;1.10;;;23.20;43.60;;;;;;4991024;28;20461;-70
2021/05/26 10:43:18;;;;;;;3.97;0.95;;;23.40;42.40;;;;;;4989984;28;20060;-68
2021/05/26 10:45:47;;;;;;;1.10;1.00;;;23.40;43.40;;;;;;4997823;28;20131;-69
2021/05/26 10:48:13;;;;;;;2.38;1.08;;;23.30;41.80;;;;;;4991702;28;20049;-69
2021/05/26 10:50:47;;;;;;;71.30;18.88;;;23.30;42.00;;;;;;4988582;28;20034;-65
2021/05/26 10:53:15;;;;;;;3.22;1.15;;;23.20;42.50;;;;;;4994275;28;20030;-68
2021/05/26 10:55:40;;;;;;;2.60;1.20;;;23.30;41.90;;;;;;4988708;28;20034;-69
2021/05/26 10:58:19;;;;;;;2.47;1.17;;;23.30;42.50;;;;;;4993069;28;20558;-70
2021/05/26 11:01:08;;;;;;;2.65;1.10;;;23.40;42.30;;;;;;4998897;28;20061;-66
2021/05/26 11:03:36;;;;;;;3.28;1.15;;;23.30;42.50;;;;;;4994967;28;20040;-69
2021/05/26 11:06:08;;;;;;;;;;;23.30;42.50;;;;;;4996706;28;20149;-70
2021/05/26 11:08:49;;;;;;;3.08;1.20;;;23.40;42.30;;;;;;4989712;28;19992;-67
2021/05/26 11:11:39;;;;;;;3.33;1.40;;;23.40;42.40;;;;;;4990281;28;20021;-67
2021/05/26 11:14:11;;;;;;;3.72;1.20;;;23.40;42.40;;;;;;4991039;28;20030;-67
2021/05/26 11:16:40;;;;;;;3.95;1.17;;;23.40;42.40;;;;;;4987307;28;20114;-67
2021/05/26 11:19:13;;;;;;;2.17;1.20;;;23.40;42.40;;;;;;4992311;28;20026;-68
2021/05/26 11:22:05;;;;;;;2.88;1.30;;;23.40;42.20;;;;;;4988831;28;20050;-68
2021/05/26 11:24:36;;;;;;;4.28;1.20;;;23.40;42.00;;;;;;4990654;28;20030;-67
2021/05/26 11:27:12;;;;;;;2.97;1.23;;;23.30;41.90;;;;;;4997424;28;20045;-68
2021/05/26 11:29:38;;;;;;;2.33;1.38;;;23.40;42.00;;;;;;4996211;28;20029;-68
2021/05/26 11:32:09;;;;;;;1.55;1.00;;;23.30;42.30;;;;;;4988392;28;20030;-67
2021/05/26 11:34:35;;;;;;;5.20;1.90;;;23.40;42.50;;;;;;4988226;28;20519;-67
2021/05/26 11:37:02;;;;;;;2.03;1.30;;;23.40;42.10;;;;;;4995172;28;20109;-68
2021/05/26 11:39:30;;;;;;;2.67;1.40;;;23.40;42.50;;;;;;4992143;28;20089;-68
2021/05/26 11:42:15;;;;;;;2.00;1.20;;;23.40;42.20;;;;;;4990562;28;20065;-68
2021/05/26 11:44:52;;;;;;;2.38;1.20;;;23.40;42.10;;;;;;4996256;28;20025;-69
2021/05/26 11:47:29;;;;;;;3.60;1.50;;;23.40;42.10;;;;;;4991015;28;20046;-69
2021/05/26 11:49:55;;;;;;;;;;;23.40;42.20;;;;;;4992031;28;20042;-69
2021/05/26 11:52:21;;;;;;;2.50;1.20;;;23.40;42.00;;;;;;4996653;28;19963;-69
2021/05/26 11:54:59;;;;;;;4.25;1.65;;;23.40;41.90;;;;;;4998551;28;20443;-68
2021/05/26 11:57:35;;;;;;;2.50;1.52;;;23.40;42.30;;;;;;4994428;28;20032;-69
2021/05/26 12:00:05;;;;;;;3.38;1.20;;;23.40;42.30;;;;;;4994604;28;20026;-71
2021/05/26 12:02:31;;;;;;;3.75;1.70;;;23.30;42.00;;;;;;4995953;28;20030;-71
2021/05/26 12:04:57;;;;;;;2.20;1.30;;;23.30;41.40;;;;;;4997214;28;20041;-71
2021/05/26 12:07:28;;;;;;;2.67;1.42;;;23.20;41.50;;;;;;4991092;28;20169;-71
2021/05/26 12:09:55;;;;;;;3.58;1.33;;;23.20;42.30;;;;;;4992306;28;20576;-71
2021/05/26 12:12:22;;;;;;;2.08;1.25;;;23.20;40.90;;;;;;4997816;28;20048;-71
2021/05/26 12:14:48;;;;;;;3.80;1.63;;;23.20;41.20;;;;;;4991175;28;20030;-70
2021/05/26 12:17:15;;;;;;;1.90;1.17;;;23.20;41.00;;;;;;5000937;28;20072;-70
2021/05/26 12:19:43;;;;;;;2.00;1.40;;;23.20;41.20;;;;;;4993885;28;20057;-70
2021/05/26 12:22:10;;;;;;;;;;;23.20;41.20;;;;;;5001067;28;20053;-70
2021/05/26 12:24:54;;;;;;;3.10;1.33;;;23.20;41.30;;;;;;4993761;28;19967;-71
2021/05/26 12:27:44;;;;;;;2.90;1.38;;;23.20;42.10;;;;;;4994681;28;20119;-71
2021/05/26 12:30:24;;;;;;;2.42;1.30;;;23.20;43.00;;;;;;4987857;28;20030;-63
2021/05/26 12:33:14;;;;;;;3.80;1.50;;;23.20;41.50;;;;;;4995147;28;20030;-64
2021/05/26 12:35:40;;;;;;;2.03;1.20;;;23.20;41.40;;;;;;4992937;28;20053;-64
2021/05/26 12:38:17;;;;;;;2.03;1.10;;;23.20;41.50;;;;;;4992130;28;20653;-63
2021/05/26 12:40:43;;;;;;;3.42;1.63;;;23.20;41.70;;;;;;4991017;28;20415;-63
2021/05/26 12:43:30;;;;;;;1.67;1.05;;;23.10;42.00;;;;;;4989935;28;20030;-63
2021/05/26 12:45:56;;;;;;;2.80;1.30;;;23.10;43.10;;;;;;4990923;28;20064;-63
2021/05/26 12:48:28;;;;;;;1.70;1.10;;;23.10;42.20;;;;;;4994448;28;20042;-63
2021/05/26 12:50:59;;;;;;;2.95;1.33;;;23.10;42.30;;;;;;4991006;28;20104;-63
2021/05/26 12:53:33;;;;;;;3.50;1.52;;;23.10;42.50;;;;;;4995219;28;20276;-63
2021/05/26 12:56:00;;;;;;;2.45;1.15;;;23.10;42.50;;;;;;5000462;28;20041;-63
2021/05/26 12:58:26;;;;;;;2.63;1.20;;;23.10;42.60;;;;;;4993963;28;20108;-63
2021/05/26 13:01:06;;;;;;;1.25;1.00;;;23.10;42.70;;;;;;4998391;28;20021;-61
2021/05/26 13:03:35;;;;;;;4.53;1.40;;;23.10;42.80;;;;;;4995169;28;20036;-61
2021/05/26 13:06:00;;;;;;;2.85;1.20;;;23.10;42.90;;;;;;4994813;28;20034;-61
2021/05/26 13:08:26;;;;;;;2.08;1.20;;;23.10;42.90;;;;;;4995320;28;20053;-60
2021/05/26 13:11:00;;;;;;;3.00;1.45;;;23.10;43.10;;;;;;4996392;28;20034;-61
2021/05/26 13:13:35;;;;;;;3.50;1.40;;;23.10;43.10;;;;;;4989284;28;20493;-61
2021/05/26 13:16:07;;;;;;;1.80;1.20;;;23.00;43.00;;;;;;4999312;28;20033;-61